sensor_id;sensor_type;location;lat;lon;timestamp;pressure;altitude;pressure_sealevel;temperature;humidity
10988;BME280;5547;42.672;23.230;2023-05-22T00:02:17;93062.47;;;9.82;100.00
10988;BME280;5547;42.672;23.230;2023-05-22T00:05:18;93018.97;;;9.52;100.00
10988;BME280;5547;42.672;23.230;2023-05-22T00:08:20;93037.66;;;9.68;100.00
10988;BME280;5547;42.672;23.230;2023-05-22T00:11:21;93032.13;;;9.59;100.00
10988;BME280;5547;42.672;23.230;2023-05-22T00:14:21;93047.59;;;9.64;100.00
10988;BME280;5547;42.672;23.230;2023-05-22T00:17:22;93049.09;;;9.65;100.00
10988;BME280;5547;42.672;23.230;2023-05-22T00:20:22;93060.81;;;9.68;100.00
10988;BME280;5547;42.672;23.230;2023-05-22T00:23:23;92997.03;;;9.24;100.00
10988;BME280;5547;42.672;23.230;2023-05-22T00:26:24;92982.00;;;9.14;100.00
10988;BME280;5547;42.672;23.230;2023-05-22T00:29:24;92968.81;;;9.11;100.00
10988;BME280;5547;42.672;23.230;2023-05-22T00:32:25;92965.81;;;9.09;100.00
10988;BME280;5547;42.672;23.230;2023-05-22T00:35:26;93025.06;;;9.49;100.00
10988;BME280;5547;42.672;23.230;2023-05-22T00:38:28;93064.63;;;9.67;100.00
10988;BME280;5547;42.672;23.230;2023-05-22T00:41:30;93035.69;;;9.49;100.00
10988;BME280;5547;42.672;23.230;2023-05-22T00:44:33;93026.41;;;9.37;100.00
10988;BME280;5547;42.672;23.230;2023-05-22T00:47:33;93007.28;;;9.22;100.00
10988;BME280;5547;42.672;23.230;2023-05-22T00:50:34;92976.66;;;8.91;100.00
10988;BME280;5547;42.672;23.230;2023-05-22T00:53:34;93064.53;;;9.47;100.00
10988;BME280;5547;42.672;23.230;2023-05-22T00:56:36;93018.81;;;9.12;100.00
10988;BME280;5547;42.672;23.230;2023-05-22T00:59:36;93030.22;;;9.09;100.00
10988;BME280;5547;42.672;23.230;2023-05-22T01:02:37;93067.22;;;9.20;100.00
10988;BME280;5547;42.672;23.230;2023-05-22T01:05:39;93057.56;;;9.06;100.00
10988;BME280;5547;42.672;23.230;2023-05-22T01:08:41;93054.59;;;9.00;100.00
10988;BME280;5547;42.672;23.230;2023-05-22T01:15:23;93056.97;;;8.91;100.00
10988;BME280;5547;42.672;23.230;2023-05-22T01:18:36;93044.66;;;8.77;100.00
10988;BME280;5547;42.672;23.230;2023-05-22T01:21:49;93059.81;;;8.77;100.00
10988;BME280;5547;42.672;23.230;2023-05-22T01:31:35;93008.47;;;8.29;100.00
10988;BME280;5547;42.672;23.230;2023-05-22T01:34:43;93002.13;;;8.23;100.00
10988;BME280;5547;42.672;23.230;2023-05-22T01:37:44;93047.66;;;8.49;100.00
10988;BME280;5547;42.672;23.230;2023-05-22T01:40:45;92906.41;;;7.56;100.00
10988;BME280;5547;42.672;23.230;2023-05-22T01:43:45;93043.13;;;8.49;100.00
10988;BME280;5547;42.672;23.230;2023-05-22T01:46:46;93028.47;;;8.37;100.00
10988;BME280;5547;42.672;23.230;2023-05-22T01:49:46;93023.16;;;8.37;100.00
10988;BME280;5547;42.672;23.230;2023-05-22T01:52:55;93010.53;;;8.18;100.00
10988;BME280;5547;42.672;23.230;2023-05-22T01:56:14;93002.75;;;8.00;100.00
10988;BME280;5547;42.672;23.230;2023-05-22T01:59:25;93043.19;;;8.42;100.00
10988;BME280;5547;42.672;23.230;2023-05-22T02:02:30;93040.22;;;8.36;100.00
10988;BME280;5547;42.672;23.230;2023-05-22T02:05:32;93042.50;;;8.34;100.00
10988;BME280;5547;42.672;23.230;2023-05-22T02:08:36;93018.81;;;8.20;100.00
10988;BME280;5547;42.672;23.230;2023-05-22T02:11:39;93032.00;;;8.27;100.00
10988;BME280;5547;42.672;23.230;2023-05-22T02:14:42;93038.44;;;8.26;100.00
10988;BME280;5547;42.672;23.230;2023-05-22T02:17:42;93029.88;;;8.11;100.00
10988;BME280;5547;42.672;23.230;2023-05-22T02:20:47;93045.66;;;8.22;100.00
10988;BME280;5547;42.672;23.230;2023-05-22T02:23:47;92989.25;;;7.87;100.00
10988;BME280;5547;42.672;23.230;2023-05-22T02:26:48;93004.38;;;7.90;100.00
10988;BME280;5547;42.672;23.230;2023-05-22T02:29:49;93044.81;;;8.29;100.00
10988;BME280;5547;42.672;23.230;2023-05-22T02:32:50;92988.97;;;7.78;100.00
10988;BME280;5547;42.672;23.230;2023-05-22T02:35:50;93045.66;;;8.22;100.00
10988;BME280;5547;42.672;23.230;2023-05-22T02:38:51;93002.91;;;7.86;100.00
10988;BME280;5547;42.672;23.230;2023-05-22T02:41:51;93037.72;;;8.22;100.00
10988;BME280;5547;42.672;23.230;2023-05-22T02:44:52;92933.75;;;7.42;100.00
10988;BME280;5547;42.672;23.230;2023-05-22T02:47:52;92962.56;;;7.71;100.00
10988;BME280;5547;42.672;23.230;2023-05-22T02:50:52;93036.13;;;8.28;100.00
10988;BME280;5547;42.672;23.230;2023-05-22T02:53:53;92992.59;;;7.95;100.00
10988;BME280;5547;42.672;23.230;2023-05-22T02:56:54;92843.50;;;6.95;100.00
10988;BME280;5547;42.672;23.230;2023-05-22T02:59:54;92927.25;;;7.50;100.00
10988;BME280;5547;42.672;23.230;2023-05-22T03:02:56;93028.97;;;8.25;100.00
10988;BME280;5547;42.672;23.230;2023-05-22T03:05:56;93020.94;;;8.32;100.00
10988;BME280;5547;42.672;23.230;2023-05-22T03:08:57;93037.16;;;8.41;100.00
10988;BME280;5547;42.672;23.230;2023-05-22T03:11:57;93036.78;;;8.39;100.00
10988;BME280;5547;42.672;23.230;2023-05-22T03:14:58;93010.75;;;8.31;100.00
10988;BME280;5547;42.672;23.230;2023-05-22T03:17:58;93034.69;;;8.58;100.00
10988;BME280;5547;42.672;23.230;2023-05-22T03:20:59;92998.88;;;8.46;100.00
10988;BME280;5547;42.672;23.230;2023-05-22T03:23:59;93021.47;;;8.85;100.00
10988;BME280;5547;42.672;23.230;2023-05-22T03:27:00;92995.69;;;8.86;100.00
10988;BME280;5547;42.672;23.230;2023-05-22T03:30:01;92909.22;;;8.37;100.00
10988;BME280;5547;42.672;23.230;2023-05-22T03:33:02;93042.38;;;9.34;100.00
10988;BME280;5547;42.672;23.230;2023-05-22T03:36:02;93027.09;;;9.41;100.00
10988;BME280;5547;42.672;23.230;2023-05-22T03:39:03;93000.03;;;9.27;100.00
10988;BME280;5547;42.672;23.230;2023-05-22T03:42:05;93040.72;;;9.67;100.00
10988;BME280;5547;42.672;23.230;2023-05-22T03:45:06;93016.59;;;9.58;100.00
10988;BME280;5547;42.672;23.230;2023-05-22T03:48:06;93049.41;;;9.91;100.00
10988;BME280;5547;42.672;23.230;2023-05-22T03:51:07;93049.31;;;9.98;100.00
10988;BME280;5547;42.672;23.230;2023-05-22T03:54:07;93053.00;;;10.04;100.00
10988;BME280;5547;42.672;23.230;2023-05-22T03:57:07;93030.16;;;9.87;100.00
10988;BME280;5547;42.672;23.230;2023-05-22T04:00:08;92951.44;;;9.53;100.00
10988;BME280;5547;42.672;23.230;2023-05-22T04:03:09;93007.03;;;9.84;100.00
10988;BME280;5547;42.672;23.230;2023-05-22T04:06:13;93056.81;;;10.23;100.00
10988;BME280;5547;42.672;23.230;2023-05-22T04:09:14;93045.34;;;10.30;100.00
10988;BME280;5547;42.672;23.230;2023-05-22T04:12:14;93014.72;;;10.22;100.00
10988;BME280;5547;42.672;23.230;2023-05-22T04:15:15;93052.16;;;10.71;100.00
10988;BME280;5547;42.672;23.230;2023-05-22T04:18:15;93006.41;;;10.60;100.00
10988;BME280;5547;42.672;23.230;2023-05-22T04:21:16;93054.91;;;11.04;100.00
10988;BME280;5547;42.672;23.230;2023-05-22T04:24:16;93000.19;;;10.86;100.00
10988;BME280;5547;42.672;23.230;2023-05-22T04:27:17;93052.00;;;11.67;100.00
10988;BME280;5547;42.672;23.230;2023-05-22T04:30:21;93047.47;;;11.31;100.00
10988;BME280;5547;42.672;23.230;2023-05-22T04:33:21;93006.50;;;10.92;100.00
10988;BME280;5547;42.672;23.230;2023-05-22T04:36:23;93070.34;;;11.29;100.00
10988;BME280;5547;42.672;23.230;2023-05-22T04:39:25;93006.34;;;11.00;100.00
10988;BME280;5547;42.672;23.230;2023-05-22T04:42:26;93057.78;;;11.46;100.00
10988;BME280;5547;42.672;23.230;2023-05-22T04:45:27;93032.69;;;11.47;100.00
10988;BME280;5547;42.672;23.230;2023-05-22T04:48:27;93064.03;;;12.21;100.00
10988;BME280;5547;42.672;23.230;2023-05-22T04:51:28;92999.59;;;11.93;100.00
10988;BME280;5547;42.672;23.230;2023-05-22T04:54:30;93071.72;;;12.90;100.00
10988;BME280;5547;42.672;23.230;2023-05-22T04:57:31;93084.81;;;13.27;100.00
10988;BME280;5547;42.672;23.230;2023-05-22T05:00:31;93070.31;;;13.40;100.00
10988;BME280;5547;42.672;23.230;2023-05-22T05:03:33;93075.41;;;13.60;100.00
10988;BME280;5547;42.672;23.230;2023-05-22T05:06:33;93038.13;;;13.44;100.00
10988;BME280;5547;42.672;23.230;2023-05-22T05:09:34;93083.66;;;13.66;100.00
10988;BME280;5547;42.672;23.230;2023-05-22T05:12:35;93087.94;;;14.59;100.00
10988;BME280;5547;42.672;23.230;2023-05-22T05:15:35;93076.59;;;14.99;100.00
10988;BME280;5547;42.672;23.230;2023-05-22T05:18:36;93083.66;;;14.26;100.00
10988;BME280;5547;42.672;23.230;2023-05-22T05:21:37;93023.34;;;13.65;100.00
10988;BME280;5547;42.672;23.230;2023-05-22T05:24:45;93080.28;;;14.92;100.00
10988;BME280;5547;42.672;23.230;2023-05-22T05:27:46;93091.16;;;15.20;100.00
10988;BME280;5547;42.672;23.230;2023-05-22T05:30:46;93093.44;;;14.42;100.00
10988;BME280;5547;42.672;23.230;2023-05-22T05:33:47;93056.25;;;14.22;100.00
10988;BME280;5547;42.672;23.230;2023-05-22T05:36:48;93034.22;;;13.96;100.00
10988;BME280;5547;42.672;23.230;2023-05-22T05:39:48;93109.25;;;14.84;100.00
10988;BME280;5547;42.672;23.230;2023-05-22T05:42:49;93105.06;;;14.61;100.00
10988;BME280;5547;42.672;23.230;2023-05-22T05:45:50;93110.31;;;15.40;100.00
10988;BME280;5547;42.672;23.230;2023-05-22T05:48:51;93100.88;;;15.58;100.00
10988;BME280;5547;42.672;23.230;2023-05-22T05:51:51;93093.69;;;15.54;100.00
10988;BME280;5547;42.672;23.230;2023-05-22T05:54:52;93114.63;;;15.38;100.00
10988;BME280;5547;42.672;23.230;2023-05-22T05:57:53;93115.31;;;15.29;100.00
10988;BME280;5547;42.672;23.230;2023-05-22T06:00:53;93118.09;;;15.79;100.00
10988;BME280;5547;42.672;23.230;2023-05-22T06:03:54;93109.78;;;15.54;100.00
10988;BME280;5547;42.672;23.230;2023-05-22T06:06:54;93107.97;;;15.83;100.00
10988;BME280;5547;42.672;23.230;2023-05-22T06:09:54;93082.78;;;15.80;100.00
10988;BME280;5547;42.672;23.230;2023-05-22T06:12:55;93114.16;;;16.11;100.00
10988;BME280;5547;42.672;23.230;2023-05-22T06:15:55;93109.94;;;15.91;100.00
10988;BME280;5547;42.672;23.230;2023-05-22T06:18:57;93020.59;;;15.54;100.00
10988;BME280;5547;42.672;23.230;2023-05-22T06:21:58;93130.03;;;16.36;100.00
10988;BME280;5547;42.672;23.230;2023-05-22T06:24:58;93087.31;;;15.61;100.00
10988;BME280;5547;42.672;23.230;2023-05-22T06:27:59;93101.50;;;16.21;100.00
10988;BME280;5547;42.672;23.230;2023-05-22T06:30:59;93118.09;;;16.56;100.00
10988;BME280;5547;42.672;23.230;2023-05-22T06:34:00;93117.22;;;16.59;100.00
10988;BME280;5547;42.672;23.230;2023-05-22T06:37:00;93069.16;;;16.33;100.00
10988;BME280;5547;42.672;23.230;2023-05-22T06:40:03;93121.38;;;16.69;95.55
10988;BME280;5547;42.672;23.230;2023-05-22T06:43:05;93074.84;;;16.82;90.67
10988;BME280;5547;42.672;23.230;2023-05-22T06:46:05;93091.66;;;16.08;95.43
10988;BME280;5547;42.672;23.230;2023-05-22T06:49:06;93093.63;;;16.63;92.51
10988;BME280;5547;42.672;23.230;2023-05-22T06:52:06;93122.75;;;16.92;91.34
10988;BME280;5547;42.672;23.230;2023-05-22T06:55:07;93131.41;;;17.67;86.06
10988;BME280;5547;42.672;23.230;2023-05-22T06:58:07;93100.34;;;16.68;88.49
10988;BME280;5547;42.672;23.230;2023-05-22T07:01:08;93127.53;;;16.88;95.31
10988;BME280;5547;42.672;23.230;2023-05-22T07:04:08;93122.91;;;16.89;94.28
10988;BME280;5547;42.672;23.230;2023-05-22T07:07:11;93131.53;;;17.20;91.61
10988;BME280;5547;42.672;23.230;2023-05-22T07:10:11;93123.84;;;17.37;93.56
10988;BME280;5547;42.672;23.230;2023-05-22T07:13:11;93129.91;;;17.75;82.49
10988;BME280;5547;42.672;23.230;2023-05-22T07:16:13;93131.91;;;17.98;81.51
10988;BME280;5547;42.672;23.230;2023-05-22T07:19:13;93073.44;;;17.99;90.09
10988;BME280;5547;42.672;23.230;2023-05-22T07:22:14;93128.16;;;18.29;87.87
10988;BME280;5547;42.672;23.230;2023-05-22T07:25:15;93133.53;;;18.05;86.73
10988;BME280;5547;42.672;23.230;2023-05-22T07:28:15;93099.09;;;17.76;91.91
10988;BME280;5547;42.672;23.230;2023-05-22T07:31:16;93124.47;;;17.93;89.22
10988;BME280;5547;42.672;23.230;2023-05-22T07:34:16;93106.09;;;18.16;83.14
10988;BME280;5547;42.672;23.230;2023-05-22T07:37:17;93128.03;;;18.47;83.08
10988;BME280;5547;42.672;23.230;2023-05-22T07:40:17;93125.63;;;18.50;78.69
10988;BME280;5547;42.672;23.230;2023-05-22T07:43:18;93128.16;;;18.53;79.20
10988;BME280;5547;42.672;23.230;2023-05-22T07:46:18;93129.31;;;18.85;76.86
10988;BME280;5547;42.672;23.230;2023-05-22T07:49:18;93127.69;;;18.55;79.64
10988;BME280;5547;42.672;23.230;2023-05-22T07:52:21;93129.31;;;19.15;76.58
10988;BME280;5547;42.672;23.230;2023-05-22T07:55:22;93129.47;;;18.97;74.48
10988;BME280;5547;42.672;23.230;2023-05-22T07:58:23;93125.06;;;18.69;72.53
10988;BME280;5547;42.672;23.230;2023-05-22T08:01:23;93123.03;;;18.55;81.43
10988;BME280;5547;42.672;23.230;2023-05-22T08:04:24;93082.28;;;18.23;73.44
10988;BME280;5547;42.672;23.230;2023-05-22T08:07:25;93122.94;;;18.50;70.15
10988;BME280;5547;42.672;23.230;2023-05-22T08:10:25;93122.53;;;18.18;71.81
10988;BME280;5547;42.672;23.230;2023-05-22T08:13:25;93126.03;;;18.81;69.03
10988;BME280;5547;42.672;23.230;2023-05-22T08:16:26;93100.63;;;18.73;73.98
10988;BME280;5547;42.672;23.230;2023-05-22T08:19:26;93089.63;;;19.01;70.52
10988;BME280;5547;42.672;23.230;2023-05-22T08:22:28;93128.88;;;18.30;72.59
10988;BME280;5547;42.672;23.230;2023-05-22T08:25:30;93098.34;;;18.09;70.10
10988;BME280;5547;42.672;23.230;2023-05-22T08:28:30;93112.31;;;18.46;70.10
10988;BME280;5547;42.672;23.230;2023-05-22T08:31:31;93116.88;;;19.18;66.89
10988;BME280;5547;42.672;23.230;2023-05-22T08:34:34;93130.63;;;19.49;65.75
10988;BME280;5547;42.672;23.230;2023-05-22T08:37:34;93128.88;;;19.61;62.78
10988;BME280;5547;42.672;23.230;2023-05-22T08:40:37;93099.75;;;19.36;63.61
10988;BME280;5547;42.672;23.230;2023-05-22T08:43:39;93124.88;;;19.12;60.97
10988;BME280;5547;42.672;23.230;2023-05-22T08:46:40;93073.53;;;18.92;63.47
10988;BME280;5547;42.672;23.230;2023-05-22T08:49:46;93066.81;;;18.72;60.30
10988;BME280;5547;42.672;23.230;2023-05-22T08:52:51;93070.00;;;19.45;57.06
10988;BME280;5547;42.672;23.230;2023-05-22T08:55:52;93131.91;;;19.99;55.73
10988;BME280;5547;42.672;23.230;2023-05-22T08:58:53;93126.47;;;20.13;56.00
10988;BME280;5547;42.672;23.230;2023-05-22T09:01:54;93118.00;;;19.11;52.65
10988;BME280;5547;42.672;23.230;2023-05-22T09:04:55;93112.13;;;19.42;52.79
10988;BME280;5547;42.672;23.230;2023-05-22T09:07:56;93114.47;;;19.35;53.76
10988;BME280;5547;42.672;23.230;2023-05-22T09:10:57;93071.66;;;19.72;52.86
10988;BME280;5547;42.672;23.230;2023-05-22T09:14:10;93107.34;;;19.97;53.71
10988;BME280;5547;42.672;23.230;2023-05-22T09:17:14;93112.41;;;19.59;57.37
10988;BME280;5547;42.672;23.230;2023-05-22T09:20:15;93117.06;;;19.59;54.62
10988;BME280;5547;42.672;23.230;2023-05-22T09:23:15;93113.50;;;19.67;53.43
10988;BME280;5547;42.672;23.230;2023-05-22T09:26:21;93119.81;;;19.94;47.98
10988;BME280;5547;42.672;23.230;2023-05-22T09:29:25;93089.72;;;18.92;50.99
10988;BME280;5547;42.672;23.230;2023-05-22T09:32:28;93081.34;;;18.89;52.22
10988;BME280;5547;42.672;23.230;2023-05-22T09:35:31;93074.91;;;18.48;50.60
10988;BME280;5547;42.672;23.230;2023-05-22T09:38:31;93088.88;;;18.85;52.79
10988;BME280;5547;42.672;23.230;2023-05-22T09:41:38;93056.06;;;18.87;54.34
10988;BME280;5547;42.672;23.230;2023-05-22T09:44:38;93127.13;;;19.43;50.96
10988;BME280;5547;42.672;23.230;2023-05-22T09:47:39;93087.69;;;19.96;50.34
10988;BME280;5547;42.672;23.230;2023-05-22T09:50:39;93114.22;;;20.33;51.54
10988;BME280;5547;42.672;23.230;2023-05-22T09:53:42;93096.75;;;19.93;52.48
10988;BME280;5547;42.672;23.230;2023-05-22T09:56:48;93083.69;;;19.26;54.49
10988;BME280;5547;42.672;23.230;2023-05-22T09:59:50;93083.22;;;19.28;56.01
10988;BME280;5547;42.672;23.230;2023-05-22T10:03:09;93105.16;;;19.36;56.41
10988;BME280;5547;42.672;23.230;2023-05-22T10:06:15;93076.59;;;18.99;57.28
10988;BME280;5547;42.672;23.230;2023-05-22T10:09:20;93088.44;;;18.63;58.92
10988;BME280;5547;42.672;23.230;2023-05-22T10:12:22;93037.72;;;18.22;58.52
10988;BME280;5547;42.672;23.230;2023-05-22T10:15:25;93106.84;;;19.18;59.38
10988;BME280;5547;42.672;23.230;2023-05-22T10:18:26;93116.94;;;18.94;59.74
10988;BME280;5547;42.672;23.230;2023-05-22T10:21:28;93060.47;;;18.21;62.18
10988;BME280;5547;42.672;23.230;2023-05-22T10:24:29;93116.06;;;18.48;64.12
10988;BME280;5547;42.672;23.230;2023-05-22T10:27:31;93116.78;;;18.73;60.13
10988;BME280;5547;42.672;23.230;2023-05-22T10:30:39;93056.63;;;18.37;61.28
10988;BME280;5547;42.672;23.230;2023-05-22T10:33:45;93070.75;;;18.23;63.59
10988;BME280;5547;42.672;23.230;2023-05-22T10:36:53;93115.22;;;18.42;64.34
10988;BME280;5547;42.672;23.230;2023-05-22T10:40:09;93021.81;;;17.76;63.16
10988;BME280;5547;42.672;23.230;2023-05-22T10:43:11;93060.66;;;17.42;62.88
10988;BME280;5547;42.672;23.230;2023-05-22T10:46:12;93109.44;;;17.68;66.03
10988;BME280;5547;42.672;23.230;2023-05-22T10:49:19;93079.03;;;16.73;80.14
10988;BME280;5547;42.672;23.230;2023-05-22T10:52:21;93120.63;;;15.82;94.16
10988;BME280;5547;42.672;23.230;2023-05-22T10:55:22;93129.97;;;14.71;100.00
10988;BME280;5547;42.672;23.230;2023-05-22T10:58:33;93117.19;;;13.93;100.00
10988;BME280;5547;42.672;23.230;2023-05-22T11:01:36;93100.94;;;14.35;100.00
10988;BME280;5547;42.672;23.230;2023-05-22T11:04:37;93113.72;;;14.31;100.00
10988;BME280;5547;42.672;23.230;2023-05-22T11:07:41;93108.38;;;14.53;100.00
10988;BME280;5547;42.672;23.230;2023-05-22T11:10:59;93112.16;;;14.42;100.00
10988;BME280;5547;42.672;23.230;2023-05-22T11:14:10;93043.81;;;14.63;100.00
10988;BME280;5547;42.672;23.230;2023-05-22T11:17:11;93101.78;;;15.64;100.00
10988;BME280;5547;42.672;23.230;2023-05-22T11:20:19;93068.56;;;16.11;100.00
10988;BME280;5547;42.672;23.230;2023-05-22T11:23:23;93089.59;;;16.40;100.00
10988;BME280;5547;42.672;23.230;2023-05-22T11:26:25;93091.72;;;16.82;100.00
10988;BME280;5547;42.672;23.230;2023-05-22T11:29:27;93076.41;;;17.25;100.00
10988;BME280;5547;42.672;23.230;2023-05-22T11:32:28;93084.28;;;17.80;100.00
10988;BME280;5547;42.672;23.230;2023-05-22T11:35:28;93069.06;;;17.35;100.00
10988;BME280;5547;42.672;23.230;2023-05-22T11:38:29;93092.38;;;17.38;100.00
10988;BME280;5547;42.672;23.230;2023-05-22T11:41:32;93089.03;;;16.54;100.00
10988;BME280;5547;42.672;23.230;2023-05-22T11:44:32;93113.84;;;15.68;100.00
10988;BME280;5547;42.672;23.230;2023-05-22T11:47:33;93080.00;;;13.85;100.00
10988;BME280;5547;42.672;23.230;2023-05-22T11:50:34;93132.06;;;13.42;100.00
10988;BME280;5547;42.672;23.230;2023-05-22T11:53:34;93128.63;;;13.29;100.00
10988;BME280;5547;42.672;23.230;2023-05-22T11:56:35;93088.75;;;12.80;100.00
10988;BME280;5547;42.672;23.230;2023-05-22T11:59:35;93120.25;;;12.72;100.00
10988;BME280;5547;42.672;23.230;2023-05-22T12:02:36;93121.22;;;12.49;100.00
10988;BME280;5547;42.672;23.230;2023-05-22T12:05:36;93132.38;;;12.90;100.00
10988;BME280;5547;42.672;23.230;2023-05-22T12:08:37;93145.72;;;12.90;100.00
10988;BME280;5547;42.672;23.230;2023-05-22T12:11:38;93127.81;;;13.16;100.00
10988;BME280;5547;42.672;23.230;2023-05-22T12:14:45;93134.09;;;13.64;100.00
10988;BME280;5547;42.672;23.230;2023-05-22T12:17:46;93119.78;;;13.58;100.00
10988;BME280;5547;42.672;23.230;2023-05-22T12:20:51;93126.84;;;13.77;100.00
10988;BME280;5547;42.672;23.230;2023-05-22T12:23:54;93113.88;;;13.88;100.00
10988;BME280;5547;42.672;23.230;2023-05-22T12:26:55;93093.66;;;14.00;100.00
10988;BME280;5547;42.672;23.230;2023-05-22T12:29:55;93106.13;;;14.16;100.00
10988;BME280;5547;42.672;23.230;2023-05-22T12:32:56;93108.94;;;14.60;100.00
10988;BME280;5547;42.672;23.230;2023-05-22T12:35:57;93096.47;;;14.66;100.00
10988;BME280;5547;42.672;23.230;2023-05-22T12:38:58;93014.41;;;14.28;100.00
10988;BME280;5547;42.672;23.230;2023-05-22T12:41:58;93105.25;;;15.42;100.00
10988;BME280;5547;42.672;23.230;2023-05-22T12:44:59;93105.94;;;15.55;100.00
10988;BME280;5547;42.672;23.230;2023-05-22T12:47:59;93109.69;;;16.08;100.00
10988;BME280;5547;42.672;23.230;2023-05-22T12:51:00;93092.56;;;16.24;100.00
10988;BME280;5547;42.672;23.230;2023-05-22T12:54:01;93104.03;;;16.24;100.00
10988;BME280;5547;42.672;23.230;2023-05-22T12:57:02;93012.56;;;15.13;100.00
10988;BME280;5547;42.672;23.230;2023-05-22T13:00:03;93054.28;;;15.64;100.00
10988;BME280;5547;42.672;23.230;2023-05-22T13:03:05;93054.19;;;15.86;100.00
10988;BME280;5547;42.672;23.230;2023-05-22T13:06:05;93103.78;;;16.50;100.00
10988;BME280;5547;42.672;23.230;2023-05-22T13:09:06;93100.34;;;16.49;100.00
10988;BME280;5547;42.672;23.230;2023-05-22T13:12:06;93097.91;;;17.25;100.00
10988;BME280;5547;42.672;23.230;2023-05-22T13:15:07;93086.88;;;17.23;100.00
10988;BME280;5547;42.672;23.230;2023-05-22T13:18:08;93086.59;;;17.63;100.00
10988;BME280;5547;42.672;23.230;2023-05-22T13:21:08;93081.13;;;18.78;100.00
10988;BME280;5547;42.672;23.230;2023-05-22T13:24:09;93034.25;;;17.40;100.00
10988;BME280;5547;42.672;23.230;2023-05-22T13:27:09;93091.44;;;17.41;100.00
10988;BME280;5547;42.672;23.230;2023-05-22T13:30:10;92992.22;;;16.39;100.00
10988;BME280;5547;42.672;23.230;2023-05-22T13:33:10;93080.22;;;16.91;100.00
10988;BME280;5547;42.672;23.230;2023-05-22T13:36:11;93069.00;;;16.18;100.00
10988;BME280;5547;42.672;23.230;2023-05-22T13:39:12;93058.16;;;16.31;100.00
10988;BME280;5547;42.672;23.230;2023-05-22T13:42:12;93056.34;;;16.56;100.00
10988;BME280;5547;42.672;23.230;2023-05-22T13:45:13;93060.38;;;16.88;100.00
10988;BME280;5547;42.672;23.230;2023-05-22T13:48:13;93027.31;;;17.25;100.00
10988;BME280;5547;42.672;23.230;2023-05-22T13:51:13;93055.25;;;17.09;100.00
10988;BME280;5547;42.672;23.230;2023-05-22T13:54:14;93027.09;;;17.37;100.00
10988;BME280;5547;42.672;23.230;2023-05-22T13:57:15;93061.66;;;17.11;95.77
10988;BME280;5547;42.672;23.230;2023-05-22T14:00:15;93057.16;;;17.27;100.00
10988;BME280;5547;42.672;23.230;2023-05-22T14:03:16;93006.22;;;16.90;92.32
10988;BME280;5547;42.672;23.230;2023-05-22T14:06:17;93027.00;;;18.37;97.80
10988;BME280;5547;42.672;23.230;2023-05-22T14:09:18;93042.25;;;19.59;100.00
10988;BME280;5547;42.672;23.230;2023-05-22T14:12:18;93027.78;;;19.42;98.62
10988;BME280;5547;42.672;23.230;2023-05-22T14:15:19;93052.91;;;20.19;100.00
10988;BME280;5547;42.672;23.230;2023-05-22T14:18:19;93013.53;;;19.91;87.69
10988;BME280;5547;42.672;23.230;2023-05-22T14:21:20;93047.13;;;19.55;88.37
10988;BME280;5547;42.672;23.230;2023-05-22T14:24:20;93051.25;;;19.86;88.79
10988;BME280;5547;42.672;23.230;2023-05-22T14:27:21;93058.69;;;20.93;83.92
10988;BME280;5547;42.672;23.230;2023-05-22T14:30:21;93057.59;;;20.85;72.31
10988;BME280;5547;42.672;23.230;2023-05-22T14:33:22;93061.41;;;18.72;77.59
10988;BME280;5547;42.672;23.230;2023-05-22T14:36:22;93043.06;;;19.30;78.56
10988;BME280;5547;42.672;23.230;2023-05-22T14:39:25;93058.44;;;19.59;74.65
10988;BME280;5547;42.672;23.230;2023-05-22T14:42:26;93050.88;;;19.13;82.46
10988;BME280;5547;42.672;23.230;2023-05-22T14:45:26;93017.69;;;18.38;82.15
10988;BME280;5547;42.672;23.230;2023-05-22T14:48:27;93039.81;;;17.70;82.56
10988;BME280;5547;42.672;23.230;2023-05-22T14:51:28;93057.06;;;17.54;85.05
10988;BME280;5547;42.672;23.230;2023-05-22T14:54:28;93045.22;;;17.18;92.34
10988;BME280;5547;42.672;23.230;2023-05-22T14:57:29;93055.72;;;17.50;84.31
10988;BME280;5547;42.672;23.230;2023-05-22T15:00:30;93056.59;;;17.56;87.86
10988;BME280;5547;42.672;23.230;2023-05-22T15:03:30;93057.91;;;17.27;93.20
10988;BME280;5547;42.672;23.230;2023-05-22T15:06:31;93018.31;;;17.28;82.81
10988;BME280;5547;42.672;23.230;2023-05-22T15:09:31;93038.06;;;17.58;77.82
10988;BME280;5547;42.672;23.230;2023-05-22T15:12:31;93076.56;;;17.31;84.91
10988;BME280;5547;42.672;23.230;2023-05-22T15:15:32;92991.88;;;16.84;83.17
10988;BME280;5547;42.672;23.230;2023-05-22T15:18:32;93064.38;;;17.02;82.62
10988;BME280;5547;42.672;23.230;2023-05-22T15:21:33;93076.34;;;16.73;89.77
10988;BME280;5547;42.672;23.230;2023-05-22T15:24:34;93061.13;;;16.52;91.89
10988;BME280;5547;42.672;23.230;2023-05-22T15:27:34;93073.34;;;16.44;96.99
10988;BME280;5547;42.672;23.230;2023-05-22T15:30:35;93067.66;;;16.14;100.00
10988;BME280;5547;42.672;23.230;2023-05-22T15:33:35;93064.06;;;15.99;99.79
10988;BME280;5547;42.672;23.230;2023-05-22T15:36:36;93070.03;;;16.03;100.00
10988;BME280;5547;42.672;23.230;2023-05-22T15:39:36;93063.19;;;16.11;100.00
10988;BME280;5547;42.672;23.230;2023-05-22T15:42:36;93070.00;;;15.93;100.00
10988;BME280;5547;42.672;23.230;2023-05-22T15:45:37;93035.06;;;15.66;100.00
10988;BME280;5547;42.672;23.230;2023-05-22T15:48:38;93055.34;;;15.36;100.00
10988;BME280;5547;42.672;23.230;2023-05-22T15:51:38;93066.47;;;15.25;100.00
10988;BME280;5547;42.672;23.230;2023-05-22T15:54:38;93059.00;;;15.20;100.00
10988;BME280;5547;42.672;23.230;2023-05-22T15:57:39;93072.25;;;14.92;100.00
10988;BME280;5547;42.672;23.230;2023-05-22T16:00:39;93070.97;;;15.28;100.00
10988;BME280;5547;42.672;23.230;2023-05-22T16:03:40;93069.34;;;15.30;100.00
10988;BME280;5547;42.672;23.230;2023-05-22T16:06:41;93069.06;;;14.62;100.00